Archival Weather

Salzburg

Salzburg, Austria (LOWS)

Report from: Thursday, September 21, 2023 12:20 PM CEST
Current time: Saturday, February 24, 2024 4:55 PM CET

Current weather – Weather history – Daily summaries
Weather forecast

Temperature26.0°C (78.8°F)
Dew point15.0°C (59.0°F)
Winds 5 kts (2.6 m/s, 5.8 mph) South (180°)
Visibility6.2 mi. (10 km)
Clouds Few clouds 7,000 ft. (2,134 m)
Altimeter29.68 in.Hg (1005 mB)
Relative humidity51 %
Density altitude1,785 ft. (544 m)
Remarks No significant changes expected in the next two hours
Flight conditions Visual Meteorological Conditions
Raw dataLOWS 211020Z 18005KT 9999 FEW070 26/15 Q1005 NOSIG
An error has occurred. This application may no longer respond until reloaded. Reload 🗙